sensor_id;sensor_type;location;lat;lon;timestamp;pressure;altitude;pressure_sealevel;temperature;humidity
14343;BME280;7255;53.596;9.960;2023-02-28T00:00:07;102887.56;;;4.42;nan
14343;BME280;7255;53.596;9.960;2023-02-28T00:02:36;102868.47;;;4.37;nan
14343;BME280;7255;53.596;9.960;2023-02-28T00:05:03;102888.06;;;4.36;nan
14343;BME280;7255;53.596;9.960;2023-02-28T00:07:30;102888.66;;;4.39;nan
14343;BME280;7255;53.596;9.960;2023-02-28T00:09:57;102877.69;;;4.33;nan
14343;BME280;7255;53.596;9.960;2023-02-28T00:12:23;102867.50;;;4.17;nan
14343;BME280;7255;53.596;9.960;2023-02-28T00:14:51;102876.38;;;4.06;nan
14343;BME280;7255;53.596;9.960;2023-02-28T00:17:18;102879.09;;;3.95;nan
14343;BME280;7255;53.596;9.960;2023-02-28T00:19:47;102875.38;;;3.86;nan
14343;BME280;7255;53.596;9.960;2023-02-28T00:22:15;102872.03;;;3.84;nan
14343;BME280;7255;53.596;9.960;2023-02-28T00:24:41;102878.69;;;3.78;nan
14343;BME280;7255;53.596;9.960;2023-02-28T00:27:07;102859.88;;;3.70;nan
14343;BME280;7255;53.596;9.960;2023-02-28T00:29:34;102871.59;;;3.67;nan
14343;BME280;7255;53.596;9.960;2023-02-28T00:32:00;102869.34;;;3.63;nan
14343;BME280;7255;53.596;9.960;2023-02-28T00:34:27;102841.81;;;3.53;nan
14343;BME280;7255;53.596;9.960;2023-02-28T00:36:54;102859.19;;;3.57;nan
14343;BME280;7255;53.596;9.960;2023-02-28T00:39:21;102863.44;;;3.59;nan
14343;BME280;7255;53.596;9.960;2023-02-28T00:41:47;102868.16;;;3.56;nan
14343;BME280;7255;53.596;9.960;2023-02-28T00:44:13;102865.62;;;3.54;nan
14343;BME280;7255;53.596;9.960;2023-02-28T00:46:40;102866.69;;;3.52;nan
14343;BME280;7255;53.596;9.960;2023-02-28T00:49:06;102863.06;;;3.53;nan
14343;BME280;7255;53.596;9.960;2023-02-28T00:51:32;102869.22;;;3.53;nan
14343;BME280;7255;53.596;9.960;2023-02-28T00:54:00;102866.13;;;3.48;nan
14343;BME280;7255;53.596;9.960;2023-02-28T00:56:26;102880.87;;;3.41;nan
14343;BME280;7255;53.596;9.960;2023-02-28T00:58:53;102877.47;;;3.39;nan
14343;BME280;7255;53.596;9.960;2023-02-28T01:01:19;102836.91;;;3.37;nan
14343;BME280;7255;53.596;9.960;2023-02-28T01:03:45;102873.28;;;3.36;nan
14343;BME280;7255;53.596;9.960;2023-02-28T01:06:11;102876.41;;;3.41;nan
14343;BME280;7255;53.596;9.960;2023-02-28T01:08:38;102864.94;;;3.41;nan
14343;BME280;7255;53.596;9.960;2023-02-28T01:11:10;102873.94;;;3.50;nan
14343;BME280;7255;53.596;9.960;2023-02-28T01:13:37;102876.25;;;3.54;nan
14343;BME280;7255;53.596;9.960;2023-02-28T01:16:04;102875.91;;;3.47;nan
14343;BME280;7255;53.596;9.960;2023-02-28T01:18:30;102876.41;;;3.41;nan
14343;BME280;7255;53.596;9.960;2023-02-28T01:20:57;102874.47;;;3.43;nan
14343;BME280;7255;53.596;9.960;2023-02-28T01:23:23;102869.75;;;3.47;nan
14343;BME280;7255;53.596;9.960;2023-02-28T01:25:50;102874.06;;;3.59;nan
14343;BME280;7255;53.596;9.960;2023-02-28T01:28:17;102877.69;;;3.58;nan
14343;BME280;7255;53.596;9.960;2023-02-28T01:30:47;102879.88;;;3.53;nan
14343;BME280;7255;53.596;9.960;2023-02-28T01:33:14;102884.84;;;3.46;nan
14343;BME280;7255;53.596;9.960;2023-02-28T01:35:41;102878.94;;;3.43;nan
14343;BME280;7255;53.596;9.960;2023-02-28T01:38:07;102871.00;;;3.32;nan
14343;BME280;7255;53.596;9.960;2023-02-28T01:40:33;102875.97;;;3.25;nan
14343;BME280;7255;53.596;9.960;2023-02-28T01:43:00;102872.00;;;3.19;nan
14343;BME280;7255;53.596;9.960;2023-02-28T01:45:29;102866.06;;;3.16;nan
14343;BME280;7255;53.596;9.960;2023-02-28T01:47:58;102866.66;;;3.19;nan
14343;BME280;7255;53.596;9.960;2023-02-28T01:50:29;102861.34;;;3.19;nan
14343;BME280;7255;53.596;9.960;2023-02-28T01:53:00;102874.53;;;3.21;nan
14343;BME280;7255;53.596;9.960;2023-02-28T01:55:28;102867.28;;;3.23;nan
14343;BME280;7255;53.596;9.960;2023-02-28T01:57:57;102864.97;;;3.18;nan
14343;BME280;7255;53.596;9.960;2023-02-28T02:00:25;102867.00;;;3.26;nan
14343;BME280;7255;53.596;9.960;2023-02-28T02:02:57;102872.06;;;3.29;nan
14343;BME280;7255;53.596;9.960;2023-02-28T02:05:27;102865.69;;;3.32;nan
14343;BME280;7255;53.596;9.960;2023-02-28T02:07:57;102848.41;;;3.37;nan
14343;BME280;7255;53.596;9.960;2023-02-28T02:10:31;102863.25;;;3.40;nan
14343;BME280;7255;53.596;9.960;2023-02-28T02:13:08;102853.19;;;3.43;nan
14343;BME280;7255;53.596;9.960;2023-02-28T02:15:40;102855.16;;;3.41;nan
14343;BME280;7255;53.596;9.960;2023-02-28T02:18:18;102862.12;;;3.42;nan
14343;BME280;7255;53.596;9.960;2023-02-28T02:21:14;102863.25;;;3.40;nan
14343;BME280;7255;53.596;9.960;2023-02-28T02:24:02;102862.41;;;3.39;nan
14343;BME280;7255;53.596;9.960;2023-02-28T02:26:46;102862.88;;;3.33;nan
14343;BME280;7255;53.596;9.960;2023-02-28T02:29:34;102860.47;;;3.41;nan
14343;BME280;7255;53.596;9.960;2023-02-28T02:32:36;102862.12;;;3.42;nan
14343;BME280;7255;53.596;9.960;2023-02-28T02:35:12;102858.88;;;3.50;nan
14343;BME280;7255;53.596;9.960;2023-02-28T02:37:44;102849.31;;;3.47;nan
14343;BME280;7255;53.596;9.960;2023-02-28T02:40:14;102844.47;;;3.09;nan
14343;BME280;7255;53.596;9.960;2023-02-28T02:42:47;102845.56;;;3.06;nan
14343;BME280;7255;53.596;9.960;2023-02-28T02:45:22;102828.62;;;3.19;nan
14343;BME280;7255;53.596;9.960;2023-02-28T02:47:50;102841.88;;;3.30;nan
14343;BME280;7255;53.596;9.960;2023-02-28T02:50:22;102842.97;;;3.27;nan
14343;BME280;7255;53.596;9.960;2023-02-28T02:52:52;102846.50;;;3.17;nan
14343;BME280;7255;53.596;9.960;2023-02-28T02:55:22;102846.31;;;2.97;nan
14343;BME280;7255;53.596;9.960;2023-02-28T02:57:52;102826.87;;;2.63;nan
14343;BME280;7255;53.596;9.960;2023-02-28T03:00:23;102827.09;;;2.15;nan
14343;BME280;7255;53.596;9.960;2023-02-28T03:02:52;102879.66;;;2.21;nan
14343;BME280;7255;53.596;9.960;2023-02-28T03:05:24;102821.69;;;2.27;nan
14343;BME280;7255;53.596;9.960;2023-02-28T03:07:51;102893.34;;;2.39;nan
14343;BME280;7255;53.596;9.960;2023-02-28T03:10:34;102810.81;;;2.30;nan
14343;BME280;7255;53.596;9.960;2023-02-28T03:13:18;102811.88;;;2.05;nan
14343;BME280;7255;53.596;9.960;2023-02-28T03:15:55;102813.28;;;1.87;nan
14343;BME280;7255;53.596;9.960;2023-02-28T03:18:29;102813.37;;;1.74;nan
14343;BME280;7255;53.596;9.960;2023-02-28T03:21:04;102778.34;;;1.82;nan
14343;BME280;7255;53.596;9.960;2023-02-28T03:23:37;102808.34;;;1.93;nan
14343;BME280;7255;53.596;9.960;2023-02-28T03:26:07;102813.88;;;1.90;nan
14343;BME280;7255;53.596;9.960;2023-02-28T03:28:42;102816.06;;;1.85;nan
14343;BME280;7255;53.596;9.960;2023-02-28T03:31:15;102823.97;;;1.74;nan
14343;BME280;7255;53.596;9.960;2023-02-28T03:33:47;102802.59;;;1.64;nan
14343;BME280;7255;53.596;9.960;2023-02-28T03:36:22;102810.91;;;1.60;nan
14343;BME280;7255;53.596;9.960;2023-02-28T03:38:53;102812.22;;;1.54;nan
14343;BME280;7255;53.596;9.960;2023-02-28T03:41:24;102816.03;;;1.50;nan
14343;BME280;7255;53.596;9.960;2023-02-28T03:43:56;102813.50;;;1.48;nan
14343;BME280;7255;53.596;9.960;2023-02-28T03:46:27;102812.28;;;1.41;nan
14343;BME280;7255;53.596;9.960;2023-02-28T03:48:57;102816.72;;;1.41;nan
14343;BME280;7255;53.596;9.960;2023-02-28T03:51:29;102802.94;;;1.35;nan
14343;BME280;7255;53.596;9.960;2023-02-28T03:53:58;102807.03;;;1.28;nan
14343;BME280;7255;53.596;9.960;2023-02-28T03:56:31;102804.94;;;1.21;nan
14343;BME280;7255;53.596;9.960;2023-02-28T03:59:02;102794.59;;;1.18;nan
14343;BME280;7255;53.596;9.960;2023-02-28T04:01:33;102802.31;;;0.84;nan
14343;BME280;7255;53.596;9.960;2023-02-28T04:04:02;102795.81;;;0.51;nan
14343;BME280;7255;53.596;9.960;2023-02-28T04:06:31;102798.56;;;0.49;nan
14343;BME280;7255;53.596;9.960;2023-02-28T04:08:58;102791.16;;;0.42;nan
14343;BME280;7255;53.596;9.960;2023-02-28T04:11:32;102792.22;;;0.52;nan
14343;BME280;7255;53.596;9.960;2023-02-28T04:13:59;102791.97;;;0.55;nan
14343;BME280;7255;53.596;9.960;2023-02-28T04:16:26;102793.88;;;0.53;nan
14343;BME280;7255;53.596;9.960;2023-02-28T04:18:52;102795.81;;;0.51;nan
14343;BME280;7255;53.596;9.960;2023-02-28T04:21:18;102790.94;;;0.45;nan
14343;BME280;7255;53.596;9.960;2023-02-28T04:23:48;102792.63;;;0.46;nan
14343;BME280;7255;53.596;9.960;2023-02-28T04:26:14;102788.84;;;0.24;nan
14343;BME280;7255;53.596;9.960;2023-02-28T04:28:41;102791.81;;;0.32;nan
14343;BME280;7255;53.596;9.960;2023-02-28T04:31:08;102799.19;;;0.40;nan
14343;BME280;7255;53.596;9.960;2023-02-28T04:33:34;102800.91;;;0.28;nan
14343;BME280;7255;53.596;9.960;2023-02-28T04:36:02;102791.59;;;0.23;nan
14343;BME280;7255;53.596;9.960;2023-02-28T04:38:29;102796.88;;;0.10;nan
14343;BME280;7255;53.596;9.960;2023-02-28T04:40:58;102793.50;;;0.21;nan
14343;BME280;7255;53.596;9.960;2023-02-28T04:43:26;102793.50;;;0.21;nan
14343;BME280;7255;53.596;9.960;2023-02-28T04:45:52;102789.91;;;0.22;nan
14343;BME280;7255;53.596;9.960;2023-02-28T04:48:19;102796.47;;;0.16;nan
14343;BME280;7255;53.596;9.960;2023-02-28T04:50:46;102801.75;;;0.16;nan
14343;BME280;7255;53.596;9.960;2023-02-28T04:53:12;102795.63;;;0.03;nan
14343;BME280;7255;53.596;9.960;2023-02-28T04:55:38;102811.47;;;0.03;nan
14343;BME280;7255;53.596;9.960;2023-02-28T04:58:07;102798.78;;;-0.05;nan
14343;BME280;7255;53.596;9.960;2023-02-28T05:00:33;102780.38;;;-0.07;nan
14343;BME280;7255;53.596;9.960;2023-02-28T05:02:59;102793.69;;;-0.08;nan
14343;BME280;7255;53.596;9.960;2023-02-28T05:05:26;102770.66;;;-0.06;nan
14343;BME280;7255;53.596;9.960;2023-02-28T05:07:52;102783.97;;;-0.08;nan
14343;BME280;7255;53.596;9.960;2023-02-28T05:10:20;102791.34;;;-0.13;nan
14343;BME280;7255;53.596;9.960;2023-02-28T05:12:47;102781.22;;;-0.19;nan
14343;BME280;7255;53.596;9.960;2023-02-28T05:15:16;102780.38;;;-0.20;nan
14343;BME280;7255;53.596;9.960;2023-02-28T05:17:43;102782.91;;;-0.31;nan
14343;BME280;7255;53.596;9.960;2023-02-28T05:20:10;102787.53;;;-0.34;nan
14343;BME280;7255;53.596;9.960;2023-02-28T05:22:38;102780.34;;;-0.32;nan
14343;BME280;7255;53.596;9.960;2023-02-28T05:25:06;102791.97;;;-0.22;nan
14343;BME280;7255;53.596;9.960;2023-02-28T05:27:33;102785.84;;;-0.23;nan
14343;BME280;7255;53.596;9.960;2023-02-28T05:29:59;102787.31;;;-0.31;nan
14343;BME280;7255;53.596;9.960;2023-02-28T05:32:29;102787.53;;;-0.34;nan
14343;BME280;7255;53.596;9.960;2023-02-28T05:34:56;102789.63;;;-0.40;nan
14343;BME280;7255;53.596;9.960;2023-02-28T05:37:22;102796.81;;;-0.42;nan
14343;BME280;7255;53.596;9.960;2023-02-28T05:39:48;102789.44;;;-0.36;nan
14343;BME280;7255;53.596;9.960;2023-02-28T05:42:14;102787.09;;;-0.41;nan
14343;BME280;7255;53.596;9.960;2023-02-28T05:44:41;102788.78;;;-0.40;nan
14343;BME280;7255;53.596;9.960;2023-02-28T05:47:07;102792.16;;;-0.51;nan
14343;BME280;7255;53.596;9.960;2023-02-28T05:49:35;102803.50;;;-0.63;nan
14343;BME280;7255;53.596;9.960;2023-02-28T05:52:01;102782.53;;;-0.79;nan
14343;BME280;7255;53.596;9.960;2023-02-28T05:54:27;102779.37;;;-0.84;nan
14343;BME280;7255;53.596;9.960;2023-02-28T05:56:53;102773.44;;;-0.88;nan
14343;BME280;7255;53.596;9.960;2023-02-28T05:59:20;102783.41;;;-0.79;nan
14343;BME280;7255;53.596;9.960;2023-02-28T06:01:47;102790.53;;;-0.81;nan
14343;BME280;7255;53.596;9.960;2023-02-28T06:04:14;102793.34;;;-0.69;nan
14343;BME280;7255;53.596;9.960;2023-02-28T06:06:45;102804.09;;;-0.72;nan
14343;BME280;7255;53.596;9.960;2023-02-28T06:09:11;102803.06;;;-0.70;nan
14343;BME280;7255;53.596;9.960;2023-02-28T06:11:38;102807.31;;;-0.67;nan
14343;BME280;7255;53.596;9.960;2023-02-28T06:14:05;102794.19;;;-0.69;nan
14343;BME280;7255;53.596;9.960;2023-02-28T06:16:33;102801.97;;;-0.80;nan
14343;BME280;7255;53.596;9.960;2023-02-28T06:19:02;102791.84;;;-0.73;nan
14343;BME280;7255;53.596;9.960;2023-02-28T06:21:29;102807.50;;;-0.70;nan
14343;BME280;7255;53.596;9.960;2023-02-28T06:23:57;102796.31;;;-0.61;nan
14343;BME280;7255;53.596;9.960;2023-02-28T06:26:24;102801.81;;;-0.64;nan
14343;BME280;7255;53.596;9.960;2023-02-28T06:28:50;102805.22;;;-0.62;nan
14343;BME280;7255;53.596;9.960;2023-02-28T06:31:18;102806.88;;;-0.61;nan
14343;BME280;7255;53.596;9.960;2023-02-28T06:33:45;102814.06;;;-0.63;nan
14343;BME280;7255;53.596;9.960;2023-02-28T06:36:13;102806.25;;;-0.65;nan
14343;BME280;7255;53.596;9.960;2023-02-28T06:38:40;102817.44;;;-0.61;nan
14343;BME280;7255;53.596;9.960;2023-02-28T06:41:09;102817.06;;;-0.55;nan
14343;BME280;7255;53.596;9.960;2023-02-28T06:43:38;102816.84;;;-0.52;nan
14343;BME280;7255;53.596;9.960;2023-02-28T06:46:07;102825.31;;;-0.47;nan
14343;BME280;7255;53.596;9.960;2023-02-28T06:48:34;102819.19;;;-0.47;nan
14343;BME280;7255;53.596;9.960;2023-02-28T06:51:02;102828.91;;;-0.48;nan
14343;BME280;7255;53.596;9.960;2023-02-28T06:53:28;102825.31;;;-0.47;nan
14343;BME280;7255;53.596;9.960;2023-02-28T06:55:55;102819.84;;;-0.44;nan
14343;BME280;7255;53.596;9.960;2023-02-28T06:58:23;102825.97;;;-0.43;nan
14343;BME280;7255;53.596;9.960;2023-02-28T07:00:51;102837.19;;;-0.40;nan
14343;BME280;7255;53.596;9.960;2023-02-28T07:03:19;102837.19;;;-0.40;nan
14343;BME280;7255;53.596;9.960;2023-02-28T07:05:45;102823.66;;;-0.35;nan
14343;BME280;7255;53.596;9.960;2023-02-28T07:08:12;102835.09;;;-0.34;nan
14343;BME280;7255;53.596;9.960;2023-02-28T07:10:39;102845.06;;;-0.25;nan
14343;BME280;7255;53.596;9.960;2023-02-28T07:13:06;102839.53;;;-0.22;nan
14343;BME280;7255;53.596;9.960;2023-02-28T07:15:34;102846.13;;;-0.15;nan
14343;BME280;7255;53.596;9.960;2023-02-28T07:18:01;102851.22;;;0.01;nan
14343;BME280;7255;53.596;9.960;2023-02-28T07:20:28;102850.37;;;0.01;nan
14343;BME280;7255;53.596;9.960;2023-02-28T07:22:55;102862.62;;;0.02;nan
14343;BME280;7255;53.596;9.960;2023-02-28T07:25:21;102850.81;;;0.07;nan
14343;BME280;7255;53.596;9.960;2023-02-28T07:27:48;102858.44;;;0.12;nan
14343;BME280;7255;53.596;9.960;2023-02-28T07:30:14;102871.13;;;0.19;nan
14343;BME280;7255;53.596;9.960;2023-02-28T07:32:42;102860.37;;;0.35;nan
14343;BME280;7255;53.596;9.960;2023-02-28T07:35:09;102927.44;;;0.34;nan
14343;BME280;7255;53.596;9.960;2023-02-28T07:37:35;102881.72;;;0.45;nan
14343;BME280;7255;53.596;9.960;2023-02-28T07:40:03;102937.00;;;0.50;nan
14343;BME280;7255;53.596;9.960;2023-02-28T07:42:32;102865.84;;;0.58;nan
14343;BME280;7255;53.596;9.960;2023-02-28T07:44:58;102876.22;;;0.61;nan
14343;BME280;7255;53.596;9.960;2023-02-28T07:47:25;102868.38;;;0.72;nan
14343;BME280;7255;53.596;9.960;2023-02-28T07:49:52;102864.34;;;0.80;nan
14343;BME280;7255;53.596;9.960;2023-02-28T07:52:18;102873.44;;;1.01;nan
14343;BME280;7255;53.596;9.960;2023-02-28T07:54:45;102890.16;;;1.02;nan
14343;BME280;7255;53.596;9.960;2023-02-28T07:57:11;102878.72;;;1.01;nan
14343;BME280;7255;53.596;9.960;2023-02-28T07:59:37;102879.34;;;1.18;nan
14343;BME280;7255;53.596;9.960;2023-02-28T08:02:04;102895.81;;;1.34;nan
14343;BME280;7255;53.596;9.960;2023-02-28T08:04:31;102902.56;;;1.38;nan
14343;BME280;7255;53.596;9.960;2023-02-28T08:06:59;102883.47;;;1.46;nan
14343;BME280;7255;53.596;9.960;2023-02-28T08:09:25;102906.31;;;1.60;nan
14343;BME280;7255;53.596;9.960;2023-02-28T08:11:52;102913.25;;;1.73;nan
14343;BME280;7255;53.596;9.960;2023-02-28T08:14:18;102917.03;;;1.82;nan
14343;BME280;7255;53.596;9.960;2023-02-28T08:16:44;102909.56;;;1.87;nan
14343;BME280;7255;53.596;9.960;2023-02-28T08:19:11;102916.56;;;1.88;nan
14343;BME280;7255;53.596;9.960;2023-02-28T08:21:37;102921.41;;;1.95;nan
14343;BME280;7255;53.596;9.960;2023-02-28T08:24:06;102927.09;;;2.01;nan
14343;BME280;7255;53.596;9.960;2023-02-28T08:26:32;102926.41;;;2.10;nan
14343;BME280;7255;53.596;9.960;2023-02-28T08:28:58;102926.81;;;2.17;nan
14343;BME280;7255;53.596;9.960;2023-02-28T08:31:25;102925.50;;;2.23;nan
14343;BME280;7255;53.596;9.960;2023-02-28T08:33:51;102927.56;;;2.30;nan
14343;BME280;7255;53.596;9.960;2023-02-28T08:36:18;102934.72;;;2.41;nan
14343;BME280;7255;53.596;9.960;2023-02-28T08:38:45;102938.69;;;2.47;nan
14343;BME280;7255;53.596;9.960;2023-02-28T08:41:13;102936.78;;;2.49;nan
14343;BME280;7255;53.596;9.960;2023-02-28T08:43:40;102938.00;;;2.56;nan
14343;BME280;7255;53.596;9.960;2023-02-28T08:46:07;102938.16;;;2.66;nan
14343;BME280;7255;53.596;9.960;2023-02-28T08:48:35;102947.19;;;2.75;nan
14343;BME280;7255;53.596;9.960;2023-02-28T08:51:05;102937.56;;;2.85;nan
14343;BME280;7255;53.596;9.960;2023-02-28T08:53:32;102950.72;;;2.86;nan
14343;BME280;7255;53.596;9.960;2023-02-28T08:55:59;102939.00;;;2.89;nan
14343;BME280;7255;53.596;9.960;2023-02-28T08:58:27;102957.75;;;3.10;nan
14343;BME280;7255;53.596;9.960;2023-02-28T09:00:54;102956.16;;;3.19;nan
14343;BME280;7255;53.596;9.960;2023-02-28T09:03:20;102966.53;;;3.22;nan
14343;BME280;7255;53.596;9.960;2023-02-28T09:05:55;102963.25;;;3.30;nan
14343;BME280;7255;53.596;9.960;2023-02-28T09:08:22;102960.50;;;3.31;nan
14343;BME280;7255;53.596;9.960;2023-02-28T09:10:49;102965.06;;;3.40;nan
14343;BME280;7255;53.596;9.960;2023-02-28T09:13:15;102979.44;;;3.49;nan
14343;BME280;7255;53.596;9.960;2023-02-28T09:15:43;102967.97;;;3.49;nan
14343;BME280;7255;53.596;9.960;2023-02-28T09:18:09;102975.56;;;3.53;nan
14343;BME280;7255;53.596;9.960;2023-02-28T09:20:37;102977.88;;;3.58;nan
14343;BME280;7255;53.596;9.960;2023-02-28T09:23:03;102980.75;;;3.66;nan
14343;BME280;7255;53.596;9.960;2023-02-28T09:25:30;102972.16;;;3.74;nan
14343;BME280;7255;53.596;9.960;2023-02-28T09:27:56;102986.03;;;3.89;nan
14343;BME280;7255;53.596;9.960;2023-02-28T09:30:22;102986.63;;;3.92;nan
14343;BME280;7255;53.596;9.960;2023-02-28T09:32:50;102983.81;;;3.94;nan
14343;BME280;7255;53.596;9.960;2023-02-28T09:35:17;102994.22;;;3.97;nan
14343;BME280;7255;53.596;9.960;2023-02-28T09:37:43;102987.22;;;3.96;nan
14343;BME280;7255;53.596;9.960;2023-02-28T09:40:11;102990.31;;;4.01;nan
14343;BME280;7255;53.596;9.960;2023-02-28T09:42:38;102987.88;;;4.09;nan
14343;BME280;7255;53.596;9.960;2023-02-28T09:45:21;102998.53;;;4.09;nan
14343;BME280;7255;53.596;9.960;2023-02-28T09:47:49;102997.19;;;4.15;nan
14343;BME280;7255;53.596;9.960;2023-02-28T09:50:23;102995.81;;;4.20;nan
14343;BME280;7255;53.596;9.960;2023-02-28T09:52:55;102996.16;;;4.27;nan
14343;BME280;7255;53.596;9.960;2023-02-28T09:55:38;103007.41;;;4.31;nan
14343;BME280;7255;53.596;9.960;2023-02-28T09:58:15;102998.19;;;4.35;nan
14343;BME280;7255;53.596;9.960;2023-02-28T10:00:47;103007.13;;;4.34;nan
14343;BME280;7255;53.596;9.960;2023-02-28T10:03:25;103013.03;;;4.37;nan
14343;BME280;7255;53.596;9.960;2023-02-28T10:06:00;103007.72;;;4.37;nan
14343;BME280;7255;53.596;9.960;2023-02-28T10:08:33;103003.34;;;4.48;nan
14343;BME280;7255;53.596;9.960;2023-02-28T10:11:07;103016.59;;;4.59;nan
14343;BME280;7255;53.596;9.960;2023-02-28T10:13:39;103004.81;;;4.61;nan
14343;BME280;7255;53.596;9.960;2023-02-28T10:16:11;103014.03;;;4.57;nan
14343;BME280;7255;53.596;9.960;2023-02-28T10:18:46;103009.25;;;4.51;nan
14343;BME280;7255;53.596;9.960;2023-02-28T10:21:18;103010.41;;;4.58;nan
14343;BME280;7255;53.596;9.960;2023-02-28T10:23:47;103009.09;;;4.74;nan
14343;BME280;7255;53.596;9.960;2023-02-28T10:26:16;103003.59;;;4.87;nan
14343;BME280;7255;53.596;9.960;2023-02-28T10:28:43;103001.62;;;4.89;nan
14343;BME280;7255;53.596;9.960;2023-02-28T10:31:11;103010.06;;;4.94;nan
14343;BME280;7255;53.596;9.960;2023-02-28T10:33:39;103019.09;;;5.03;nan
14343;BME280;7255;53.596;9.960;2023-02-28T10:36:13;103022.47;;;5.05;nan
14343;BME280;7255;53.596;9.960;2023-02-28T10:38:41;103018.84;;;5.06;nan
14343;BME280;7255;53.596;9.960;2023-02-28T10:41:10;103026.22;;;5.23;nan
14343;BME280;7255;53.596;9.960;2023-02-28T10:43:38;103066.41;;;5.31;nan
14343;BME280;7255;53.596;9.960;2023-02-28T10:46:12;103023.47;;;5.34;nan
14343;BME280;7255;53.596;9.960;2023-02-28T10:48:41;103018.12;;;5.34;nan
14343;BME280;7255;53.596;9.960;2023-02-28T10:51:11;103010.56;;;5.39;nan
14343;BME280;7255;53.596;9.960;2023-02-28T10:53:45;103010.03;;;5.46;nan
14343;BME280;7255;53.596;9.960;2023-02-28T10:56:16;103015.06;;;5.39;nan
14343;BME280;7255;53.596;9.960;2023-02-28T10:58:51;103020.69;;;5.46;nan
14343;BME280;7255;53.596;9.960;2023-02-28T11:01:21;103028.03;;;5.53;nan
14343;BME280;7255;53.596;9.960;2023-02-28T11:03:48;103016.84;;;5.69;nan
14343;BME280;7255;53.596;9.960;2023-02-28T11:06:18;103031.16;;;5.68;nan
14343;BME280;7255;53.596;9.960;2023-02-28T11:08:48;103026.09;;;5.65;nan
14343;BME280;7255;53.596;9.960;2023-02-28T11:11:15;103026.97;;;5.75;nan
14343;BME280;7255;53.596;9.960;2023-02-28T11:13:43;103031.19;;;5.88;nan
14343;BME280;7255;53.596;9.960;2023-02-28T11:16:12;103030.72;;;6.04;nan
14343;BME280;7255;53.596;9.960;2023-02-28T11:18:42;103027.06;;;6.24;nan
14343;BME280;7255;53.596;9.960;2023-02-28T11:21:17;103032.12;;;6.27;nan
14343;BME280;7255;53.596;9.960;2023-02-28T11:23:45;103027.34;;;6.11;nan
14343;BME280;7255;53.596;9.960;2023-02-28T11:26:12;103023.13;;;5.99;nan
14343;BME280;7255;53.596;9.960;2023-02-28T11:28:39;103023.41;;;6.06;nan
14343;BME280;7255;53.596;9.960;2023-02-28T11:31:17;103023.13;;;5.99;nan
14343;BME280;7255;53.596;9.960;2023-02-28T11:33:46;103016.59;;;5.82;nan
14343;BME280;7255;53.596;9.960;2023-02-28T11:36:19;103016.94;;;5.98;nan
14343;BME280;7255;53.596;9.960;2023-02-28T11:38:50;103022.56;;;6.15;nan
14343;BME280;7255;53.596;9.960;2023-02-28T11:41:25;103021.19;;;6.30;nan
14343;BME280;7255;53.596;9.960;2023-02-28T11:44:11;103016.41;;;6.44;nan
14343;BME280;7255;53.596;9.960;2023-02-28T11:46:47;103013.31;;;6.58;nan
14343;BME280;7255;53.596;9.960;2023-02-28T11:49:26;103019.19;;;6.62;nan
14343;BME280;7255;53.596;9.960;2023-02-28T11:52:00;103018.62;;;6.68;nan
14343;BME280;7255;53.596;9.960;2023-02-28T11:54:41;103008.50;;;6.62;nan
14343;BME280;7255;53.596;9.960;2023-02-28T11:57:25;103005.41;;;6.66;nan
14343;BME280;7255;53.596;9.960;2023-02-28T12:00:02;103015.50;;;6.82;nan
14343;BME280;7255;53.596;9.960;2023-02-28T12:02:36;103006.50;;;6.83;nan
14343;BME280;7255;53.596;9.960;2023-02-28T12:05:24;102994.66;;;6.96;nan
14343;BME280;7255;53.596;9.960;2023-02-28T12:08:06;102998.28;;;7.04;nan
14343;BME280;7255;53.596;9.960;2023-02-28T12:10:42;102996.34;;;6.97;nan
14343;BME280;7255;53.596;9.960;2023-02-28T12:13:16;102997.72;;;7.01;nan
14343;BME280;7255;53.596;9.960;2023-02-28T12:16:16;102998.56;;;7.11;nan
14343;BME280;7255;53.596;9.960;2023-02-28T12:19:02;102990.34;;;7.22;nan
14343;BME280;7255;53.596;9.960;2023-02-28T12:21:42;102993.72;;;7.24;nan
14343;BME280;7255;53.596;9.960;2023-02-28T12:24:28;102985.78;;;7.32;nan
14343;BME280;7255;53.596;9.960;2023-02-28T12:26:59;102975.59;;;7.46;nan
14343;BME280;7255;53.596;9.960;2023-02-28T12:29:29;102980.34;;;7.52;nan
14343;BME280;7255;53.596;9.960;2023-02-28T12:31:59;102987.31;;;7.63;nan
14343;BME280;7255;53.596;9.960;2023-02-28T12:34:32;102975.25;;;7.59;nan
14343;BME280;7255;53.596;9.960;2023-02-28T12:37:05;102965.37;;;7.59;nan
14343;BME280;7255;53.596;9.960;2023-02-28T12:39:37;102959.28;;;7.39;nan
14343;BME280;7255;53.596;9.960;2023-02-28T12:42:09;102967.16;;;7.41;nan
14343;BME280;7255;53.596;9.960;2023-02-28T12:44:44;102962.91;;;7.48;nan
14343;BME280;7255;53.596;9.960;2023-02-28T12:47:15;102965.66;;;7.56;nan
14343;BME280;7255;53.596;9.960;2023-02-28T12:49:45;102960.91;;;7.50;nan
14343;BME280;7255;53.596;9.960;2023-02-28T12:52:15;102946.03;;;7.47;nan
14343;BME280;7255;53.596;9.960;2023-02-28T12:54:51;102949.03;;;7.62;nan
14343;BME280;7255;53.596;9.960;2023-02-28T12:57:27;102939.22;;;7.53;nan
14343;BME280;7255;53.596;9.960;2023-02-28T13:00:02;102942.16;;;7.78;nan
14343;BME280;7255;53.596;9.960;2023-02-28T13:02:57;102938.03;;;8.01;nan
14343;BME280;7255;53.596;9.960;2023-02-28T13:05:49;102938.66;;;7.95;nan
14343;BME280;7255;53.596;9.960;2023-02-28T13:08:44;102927.78;;;7.79;nan
14343;BME280;7255;53.596;9.960;2023-02-28T13:11:29;102940.94;;;7.90;nan
14343;BME280;7255;53.596;9.960;2023-02-28T13:14:01;102929.31;;;7.99;nan
14343;BME280;7255;53.596;9.960;2023-02-28T13:16:28;102930.38;;;8.06;nan
14343;BME280;7255;53.596;9.960;2023-02-28T13:19:10;102927.31;;;8.01;nan
14343;BME280;7255;53.596;9.960;2023-02-28T13:21:44;102919.88;;;8.13;nan
14343;BME280;7255;53.596;9.960;2023-02-28T13:24:39;102927.03;;;8.31;nan
14343;BME280;7255;53.596;9.960;2023-02-28T13:27:23;102920.75;;;8.40;nan
14343;BME280;7255;53.596;9.960;2023-02-28T13:29:51;102919.62;;;8.42;nan
14343;BME280;7255;53.596;9.960;2023-02-28T13:32:42;102915.94;;;8.43;nan
14343;BME280;7255;53.596;9.960;2023-02-28T13:35:14;102911.72;;;8.41;nan
14343;BME280;7255;53.596;9.960;2023-02-28T13:37:44;102910.44;;;8.27;nan
14343;BME280;7255;53.596;9.960;2023-02-28T13:40:31;102904.50;;;7.61;nan
14343;BME280;7255;53.596;9.960;2023-02-28T13:43:07;102901.94;;;7.69;nan
14343;BME280;7255;53.596;9.960;2023-02-28T13:45:34;102912.06;;;8.02;nan
14343;BME280;7255;53.596;9.960;2023-02-28T13:48:15;102908.72;;;8.00;nan